sensor_id;sensor_type;location;lat;lon;timestamp;temperature;humidity
18690;DHT22;9782;52.930;15.562;2022-11-20T00:01:18;1.90;99.90
18690;DHT22;9782;52.930;15.562;2022-11-20T00:03:46;1.90;99.90
18690;DHT22;9782;52.930;15.562;2022-11-20T00:06:15;1.90;99.90
18690;DHT22;9782;52.930;15.562;2022-11-20T00:08:43;1.90;99.90
18690;DHT22;9782;52.930;15.562;2022-11-20T00:11:13;1.90;99.90
18690;DHT22;9782;52.930;15.562;2022-11-20T00:13:40;1.90;99.90
18690;DHT22;9782;52.930;15.562;2022-11-20T00:16:10;1.90;99.90
18690;DHT22;9782;52.930;15.562;2022-11-20T00:18:37;1.90;99.90
18690;DHT22;9782;52.930;15.562;2022-11-20T00:21:06;1.90;99.90
18690;DHT22;9782;52.930;15.562;2022-11-20T00:23:34;1.80;99.90
18690;DHT22;9782;52.930;15.562;2022-11-20T00:26:02;1.80;99.90
18690;DHT22;9782;52.930;15.562;2022-11-20T00:28:31;1.80;99.90
18690;DHT22;9782;52.930;15.562;2022-11-20T00:31:02;1.70;99.90
18690;DHT22;9782;52.930;15.562;2022-11-20T00:33:30;1.70;99.90
18690;DHT22;9782;52.930;15.562;2022-11-20T00:36:00;1.70;99.90
18690;DHT22;9782;52.930;15.562;2022-11-20T00:38:27;1.70;99.90
18690;DHT22;9782;52.930;15.562;2022-11-20T00:40:56;1.70;99.90
18690;DHT22;9782;52.930;15.562;2022-11-20T00:43:23;1.70;99.90
18690;DHT22;9782;52.930;15.562;2022-11-20T00:45:56;1.70;99.90
18690;DHT22;9782;52.930;15.562;2022-11-20T00:48:23;1.60;99.90
18690;DHT22;9782;52.930;15.562;2022-11-20T00:50:50;1.70;99.90
18690;DHT22;9782;52.930;15.562;2022-11-20T00:53:17;1.60;99.90
18690;DHT22;9782;52.930;15.562;2022-11-20T00:55:53;1.70;99.90
18690;DHT22;9782;52.930;15.562;2022-11-20T00:58:20;1.60;99.90
18690;DHT22;9782;52.930;15.562;2022-11-20T01:00:47;1.60;99.90
18690;DHT22;9782;52.930;15.562;2022-11-20T01:03:16;1.60;99.90
18690;DHT22;9782;52.930;15.562;2022-11-20T01:05:43;1.60;99.90
18690;DHT22;9782;52.930;15.562;2022-11-20T01:08:10;1.60;99.90
18690;DHT22;9782;52.930;15.562;2022-11-20T01:10:37;1.60;99.90
18690;DHT22;9782;52.930;15.562;2022-11-20T01:13:04;1.70;99.90
18690;DHT22;9782;52.930;15.562;2022-11-20T01:15:49;1.60;99.90
18690;DHT22;9782;52.930;15.562;2022-11-20T01:18:17;1.70;99.90
18690;DHT22;9782;52.930;15.562;2022-11-20T01:20:44;1.70;99.90
18690;DHT22;9782;52.930;15.562;2022-11-20T01:23:11;1.70;99.90
18690;DHT22;9782;52.930;15.562;2022-11-20T01:25:38;1.70;99.90
18690;DHT22;9782;52.930;15.562;2022-11-20T01:28:05;1.70;99.90
18690;DHT22;9782;52.930;15.562;2022-11-20T01:30:32;1.70;99.90
18690;DHT22;9782;52.930;15.562;2022-11-20T01:32:59;1.70;99.90
18690;DHT22;9782;52.930;15.562;2022-11-20T01:35:27;1.70;99.90
18690;DHT22;9782;52.930;15.562;2022-11-20T01:37:54;1.70;99.90
18690;DHT22;9782;52.930;15.562;2022-11-20T01:40:21;1.60;99.90
18690;DHT22;9782;52.930;15.562;2022-11-20T01:42:55;1.60;99.90
18690;DHT22;9782;52.930;15.562;2022-11-20T01:46:11;1.60;99.90
18690;DHT22;9782;52.930;15.562;2022-11-20T01:48:45;1.60;99.90
18690;DHT22;9782;52.930;15.562;2022-11-20T01:51:19;1.60;99.90
18690;DHT22;9782;52.930;15.562;2022-11-20T01:53:47;1.70;99.90
18690;DHT22;9782;52.930;15.562;2022-11-20T01:56:16;1.60;99.90
18690;DHT22;9782;52.930;15.562;2022-11-20T01:58:47;1.60;99.90
18690;DHT22;9782;52.930;15.562;2022-11-20T02:01:16;1.60;99.90
18690;DHT22;9782;52.930;15.562;2022-11-20T02:03:43;1.70;99.90
18690;DHT22;9782;52.930;15.562;2022-11-20T02:06:16;1.70;99.90
18690;DHT22;9782;52.930;15.562;2022-11-20T02:08:44;1.70;99.90
18690;DHT22;9782;52.930;15.562;2022-11-20T02:11:11;1.70;99.90
18690;DHT22;9782;52.930;15.562;2022-11-20T02:13:39;1.70;99.90
18690;DHT22;9782;52.930;15.562;2022-11-20T02:16:12;1.70;99.90
18690;DHT22;9782;52.930;15.562;2022-11-20T02:18:40;1.70;99.90
18690;DHT22;9782;52.930;15.562;2022-11-20T02:21:12;1.70;99.90
18690;DHT22;9782;52.930;15.562;2022-11-20T02:23:52;1.70;99.90
18690;DHT22;9782;52.930;15.562;2022-11-20T02:26:21;1.70;99.90
18690;DHT22;9782;52.930;15.562;2022-11-20T02:28:49;1.70;99.90
18690;DHT22;9782;52.930;15.562;2022-11-20T02:31:17;1.70;99.90
18690;DHT22;9782;52.930;15.562;2022-11-20T02:33:44;1.80;99.90
18690;DHT22;9782;52.930;15.562;2022-11-20T02:36:15;1.80;99.90
18690;DHT22;9782;52.930;15.562;2022-11-20T02:38:43;1.70;99.90
18690;DHT22;9782;52.930;15.562;2022-11-20T02:41:11;1.70;99.90
18690;DHT22;9782;52.930;15.562;2022-11-20T02:43:38;1.70;99.90
18690;DHT22;9782;52.930;15.562;2022-11-20T02:46:06;1.70;99.90
18690;DHT22;9782;52.930;15.562;2022-11-20T02:48:34;1.80;99.90
18690;DHT22;9782;52.930;15.562;2022-11-20T02:51:01;1.80;99.90
18690;DHT22;9782;52.930;15.562;2022-11-20T02:53:28;1.80;99.90
18690;DHT22;9782;52.930;15.562;2022-11-20T02:55:55;1.80;99.90
18690;DHT22;9782;52.930;15.562;2022-11-20T02:58:24;1.80;99.90
18690;DHT22;9782;52.930;15.562;2022-11-20T03:00:52;1.80;99.90
18690;DHT22;9782;52.930;15.562;2022-11-20T03:03:19;1.80;99.90
18690;DHT22;9782;52.930;15.562;2022-11-20T03:05:46;1.80;99.90
18690;DHT22;9782;52.930;15.562;2022-11-20T03:08:13;1.80;99.90
18690;DHT22;9782;52.930;15.562;2022-11-20T03:10:40;1.80;99.90
18690;DHT22;9782;52.930;15.562;2022-11-20T03:13:07;1.80;99.90
18690;DHT22;9782;52.930;15.562;2022-11-20T03:15:37;1.80;99.90
18690;DHT22;9782;52.930;15.562;2022-11-20T03:18:04;1.80;99.90
18690;DHT22;9782;52.930;15.562;2022-11-20T03:20:32;1.90;99.90
18690;DHT22;9782;52.930;15.562;2022-11-20T03:23:00;1.90;99.90
18690;DHT22;9782;52.930;15.562;2022-11-20T03:25:27;1.90;92.20
18690;DHT22;9782;52.930;15.562;2022-11-20T03:27:54;1.90;87.30
18690;DHT22;9782;52.930;15.562;2022-11-20T03:30:22;1.90;86.50
18690;DHT22;9782;52.930;15.562;2022-11-20T03:32:53;1.90;85.60
18690;DHT22;9782;52.930;15.562;2022-11-20T03:35:20;1.80;99.90
18690;DHT22;9782;52.930;15.562;2022-11-20T03:37:47;1.90;99.90
18690;DHT22;9782;52.930;15.562;2022-11-20T03:40:14;1.90;84.60
18690;DHT22;9782;52.930;15.562;2022-11-20T03:42:41;1.90;78.50
18690;DHT22;9782;52.930;15.562;2022-11-20T03:45:16;1.90;75.80
18690;DHT22;9782;52.930;15.562;2022-11-20T03:47:43;1.80;81.90
18690;DHT22;9782;52.930;15.562;2022-11-20T03:50:13;1.90;98.90
18690;DHT22;9782;52.930;15.562;2022-11-20T03:52:40;1.80;99.90
18690;DHT22;9782;52.930;15.562;2022-11-20T03:55:08;1.80;99.90
18690;DHT22;9782;52.930;15.562;2022-11-20T03:57:35;1.80;99.90
18690;DHT22;9782;52.930;15.562;2022-11-20T04:00:03;1.80;99.90
18690;DHT22;9782;52.930;15.562;2022-11-20T04:02:31;1.80;99.90
18690;DHT22;9782;52.930;15.562;2022-11-20T04:04:58;1.90;99.90
18690;DHT22;9782;52.930;15.562;2022-11-20T04:07:27;1.80;99.90
18690;DHT22;9782;52.930;15.562;2022-11-20T04:09:54;1.80;99.90
18690;DHT22;9782;52.930;15.562;2022-11-20T04:12:21;1.80;99.90
18690;DHT22;9782;52.930;15.562;2022-11-20T04:14:48;1.80;99.90
18690;DHT22;9782;52.930;15.562;2022-11-20T04:17:15;1.80;99.90
18690;DHT22;9782;52.930;15.562;2022-11-20T04:19:42;1.80;99.90
18690;DHT22;9782;52.930;15.562;2022-11-20T04:22:09;1.80;98.40
18690;DHT22;9782;52.930;15.562;2022-11-20T04:24:39;1.80;99.90
18690;DHT22;9782;52.930;15.562;2022-11-20T04:27:06;1.80;99.90
18690;DHT22;9782;52.930;15.562;2022-11-20T04:29:33;1.80;99.90
18690;DHT22;9782;52.930;15.562;2022-11-20T04:32:00;1.70;99.90
18690;DHT22;9782;52.930;15.562;2022-11-20T04:34:27;1.70;99.90
18690;DHT22;9782;52.930;15.562;2022-11-20T04:36:54;1.70;99.90
18690;DHT22;9782;52.930;15.562;2022-11-20T04:39:21;1.70;99.90
18690;DHT22;9782;52.930;15.562;2022-11-20T04:41:49;1.70;99.90
18690;DHT22;9782;52.930;15.562;2022-11-20T04:44:36;1.60;99.90
18690;DHT22;9782;52.930;15.562;2022-11-20T04:47:04;1.70;99.90
18690;DHT22;9782;52.930;15.562;2022-11-20T04:49:31;1.60;99.90
18690;DHT22;9782;52.930;15.562;2022-11-20T04:51:58;1.60;99.90
18690;DHT22;9782;52.930;15.562;2022-11-20T04:54:25;1.60;99.90
18690;DHT22;9782;52.930;15.562;2022-11-20T04:56:53;1.60;99.90
18690;DHT22;9782;52.930;15.562;2022-11-20T04:59:20;1.60;99.90
18690;DHT22;9782;52.930;15.562;2022-11-20T05:01:47;1.60;99.90
18690;DHT22;9782;52.930;15.562;2022-11-20T05:04:14;1.60;99.90
18690;DHT22;9782;52.930;15.562;2022-11-20T05:06:41;1.60;99.90
18690;DHT22;9782;52.930;15.562;2022-11-20T05:09:08;1.60;99.90
18690;DHT22;9782;52.930;15.562;2022-11-20T05:11:36;1.60;99.90
18690;DHT22;9782;52.930;15.562;2022-11-20T05:14:04;1.60;99.90
18690;DHT22;9782;52.930;15.562;2022-11-20T05:16:34;1.50;99.90
18690;DHT22;9782;52.930;15.562;2022-11-20T05:19:01;1.50;99.90
18690;DHT22;9782;52.930;15.562;2022-11-20T05:21:30;1.50;99.90
18690;DHT22;9782;52.930;15.562;2022-11-20T05:23:57;1.50;99.90
18690;DHT22;9782;52.930;15.562;2022-11-20T05:26:24;1.50;99.90
18690;DHT22;9782;52.930;15.562;2022-11-20T05:28:51;1.50;99.90
18690;DHT22;9782;52.930;15.562;2022-11-20T05:31:21;1.50;99.90
18690;DHT22;9782;52.930;15.562;2022-11-20T05:33:48;1.50;99.90
18690;DHT22;9782;52.930;15.562;2022-11-20T05:36:16;1.50;99.90
18690;DHT22;9782;52.930;15.562;2022-11-20T05:38:44;1.50;99.90
18690;DHT22;9782;52.930;15.562;2022-11-20T05:41:13;1.50;99.90
18690;DHT22;9782;52.930;15.562;2022-11-20T05:43:43;1.50;99.90
18690;DHT22;9782;52.930;15.562;2022-11-20T05:46:12;1.60;99.90
18690;DHT22;9782;52.930;15.562;2022-11-20T05:48:42;1.60;99.90
18690;DHT22;9782;52.930;15.562;2022-11-20T05:51:11;1.50;99.90
18690;DHT22;9782;52.930;15.562;2022-11-20T05:53:38;1.50;99.90
18690;DHT22;9782;52.930;15.562;2022-11-20T05:56:08;1.50;99.90
18690;DHT22;9782;52.930;15.562;2022-11-20T05:58:36;1.50;99.90
18690;DHT22;9782;52.930;15.562;2022-11-20T06:01:05;1.50;99.90
18690;DHT22;9782;52.930;15.562;2022-11-20T06:03:32;1.50;99.90
18690;DHT22;9782;52.930;15.562;2022-11-20T06:06:01;1.50;99.90
18690;DHT22;9782;52.930;15.562;2022-11-20T06:08:29;1.50;99.90
18690;DHT22;9782;52.930;15.562;2022-11-20T06:10:56;1.50;99.90
18690;DHT22;9782;52.930;15.562;2022-11-20T06:13:24;1.50;99.90
18690;DHT22;9782;52.930;15.562;2022-11-20T06:15:51;1.50;99.90
18690;DHT22;9782;52.930;15.562;2022-11-20T06:18:19;1.50;99.90
18690;DHT22;9782;52.930;15.562;2022-11-20T06:20:47;1.50;99.90
18690;DHT22;9782;52.930;15.562;2022-11-20T06:23:15;1.60;99.90
18690;DHT22;9782;52.930;15.562;2022-11-20T06:25:43;1.50;99.90
18690;DHT22;9782;52.930;15.562;2022-11-20T06:28:10;1.50;99.90
18690;DHT22;9782;52.930;15.562;2022-11-20T06:30:37;1.50;99.90
18690;DHT22;9782;52.930;15.562;2022-11-20T06:33:04;1.50;99.90
18690;DHT22;9782;52.930;15.562;2022-11-20T06:35:31;1.60;99.90
18690;DHT22;9782;52.930;15.562;2022-11-20T06:37:57;1.60;99.90
18690;DHT22;9782;52.930;15.562;2022-11-20T06:40:26;1.60;99.90
18690;DHT22;9782;52.930;15.562;2022-11-20T06:42:53;1.60;98.10
18690;DHT22;9782;52.930;15.562;2022-11-20T06:45:21;1.60;81.90
18690;DHT22;9782;52.930;15.562;2022-11-20T06:47:48;1.60;82.80
18690;DHT22;9782;52.930;15.562;2022-11-20T06:50:15;1.70;69.60
18690;DHT22;9782;52.930;15.562;2022-11-20T06:52:42;1.60;64.90
18690;DHT22;9782;52.930;15.562;2022-11-20T06:55:09;1.70;98.30
18690;DHT22;9782;52.930;15.562;2022-11-20T06:57:38;1.70;99.90
18690;DHT22;9782;52.930;15.562;2022-11-20T07:00:06;1.70;92.70
18690;DHT22;9782;52.930;15.562;2022-11-20T07:02:33;1.80;29.00
18690;DHT22;9782;52.930;15.562;2022-11-20T07:05:00;1.80;9.30
18690;DHT22;9782;52.930;15.562;2022-11-20T07:07:28;1.80;30.70
18690;DHT22;9782;52.930;15.562;2022-11-20T07:09:55;1.80;13.20
18690;DHT22;9782;52.930;15.562;2022-11-20T07:12:22;1.90;1.00
18690;DHT22;9782;52.930;15.562;2022-11-20T07:14:52;1.90;1.00
18690;DHT22;9782;52.930;15.562;2022-11-20T07:17:19;1.90;1.00
18690;DHT22;9782;52.930;15.562;2022-11-20T07:19:47;2.00;1.00
18690;DHT22;9782;52.930;15.562;2022-11-20T07:22:13;2.00;1.00
18690;DHT22;9782;52.930;15.562;2022-11-20T07:24:40;2.00;1.00
18690;DHT22;9782;52.930;15.562;2022-11-20T07:27:07;2.00;1.00
18690;DHT22;9782;52.930;15.562;2022-11-20T07:29:34;2.10;1.00
18690;DHT22;9782;52.930;15.562;2022-11-20T07:32:04;2.10;1.00
18690;DHT22;9782;52.930;15.562;2022-11-20T07:34:31;2.10;1.00
18690;DHT22;9782;52.930;15.562;2022-11-20T07:36:58;2.10;1.00
18690;DHT22;9782;52.930;15.562;2022-11-20T07:39:25;2.10;1.00
18690;DHT22;9782;52.930;15.562;2022-11-20T07:41:52;2.20;1.00
18690;DHT22;9782;52.930;15.562;2022-11-20T07:44:19;2.20;1.00
18690;DHT22;9782;52.930;15.562;2022-11-20T07:46:46;2.20;1.00
18690;DHT22;9782;52.930;15.562;2022-11-20T07:49:14;2.30;1.00
18690;DHT22;9782;52.930;15.562;2022-11-20T07:51:41;2.40;1.00
18690;DHT22;9782;52.930;15.562;2022-11-20T07:54:08;2.40;1.00
18690;DHT22;9782;52.930;15.562;2022-11-20T07:56:36;2.40;1.00
18690;DHT22;9782;52.930;15.562;2022-11-20T07:59:03;2.40;1.00
18690;DHT22;9782;52.930;15.562;2022-11-20T08:01:31;2.40;1.00
18690;DHT22;9782;52.930;15.562;2022-11-20T08:03:58;2.40;1.00
18690;DHT22;9782;52.930;15.562;2022-11-20T08:06:26;2.40;1.00
18690;DHT22;9782;52.930;15.562;2022-11-20T08:08:53;2.50;1.00
18690;DHT22;9782;52.930;15.562;2022-11-20T08:11:20;2.60;1.00
18690;DHT22;9782;52.930;15.562;2022-11-20T08:14:05;2.60;1.00
18690;DHT22;9782;52.930;15.562;2022-11-20T08:16:42;2.70;1.00
18690;DHT22;9782;52.930;15.562;2022-11-20T08:19:11;2.80;1.00
18690;DHT22;9782;52.930;15.562;2022-11-20T08:21:40;2.90;1.00
18690;DHT22;9782;52.930;15.562;2022-11-20T08:24:08;3.00;1.00
18690;DHT22;9782;52.930;15.562;2022-11-20T08:26:36;3.10;1.00
18690;DHT22;9782;52.930;15.562;2022-11-20T08:29:04;3.20;1.00
18690;DHT22;9782;52.930;15.562;2022-11-20T08:31:32;3.30;99.90
18690;DHT22;9782;52.930;15.562;2022-11-20T08:33:59;3.30;99.90
18690;DHT22;9782;52.930;15.562;2022-11-20T08:36:26;3.30;99.90
18690;DHT22;9782;52.930;15.562;2022-11-20T08:38:55;3.40;99.90
18690;DHT22;9782;52.930;15.562;2022-11-20T08:41:23;3.30;99.90
18690;DHT22;9782;52.930;15.562;2022-11-20T08:43:55;3.40;99.90
18690;DHT22;9782;52.930;15.562;2022-11-20T08:46:23;3.40;99.90
18690;DHT22;9782;52.930;15.562;2022-11-20T08:48:51;3.40;99.90
18690;DHT22;9782;52.930;15.562;2022-11-20T08:51:19;3.40;99.90
18690;DHT22;9782;52.930;15.562;2022-11-20T08:53:47;3.50;99.90
18690;DHT22;9782;52.930;15.562;2022-11-20T08:56:16;3.50;99.90
18690;DHT22;9782;52.930;15.562;2022-11-20T08:58:44;3.50;99.90
18690;DHT22;9782;52.930;15.562;2022-11-20T09:01:11;3.60;92.90
18690;DHT22;9782;52.930;15.562;2022-11-20T09:03:40;3.60;1.00
18690;DHT22;9782;52.930;15.562;2022-11-20T09:06:07;3.60;1.00
18690;DHT22;9782;52.930;15.562;2022-11-20T09:08:34;3.60;1.00
18690;DHT22;9782;52.930;15.562;2022-11-20T09:11:03;3.60;1.00
18690;DHT22;9782;52.930;15.562;2022-11-20T09:13:33;3.60;1.00
18690;DHT22;9782;52.930;15.562;2022-11-20T09:16:02;3.70;1.00
18690;DHT22;9782;52.930;15.562;2022-11-20T09:18:29;3.70;1.00
18690;DHT22;9782;52.930;15.562;2022-11-20T09:21:01;3.70;1.00
18690;DHT22;9782;52.930;15.562;2022-11-20T09:23:32;3.70;1.00
18690;DHT22;9782;52.930;15.562;2022-11-20T09:26:02;3.80;1.00
18690;DHT22;9782;52.930;15.562;2022-11-20T09:28:32;3.90;1.00
18690;DHT22;9782;52.930;15.562;2022-11-20T09:31:04;3.90;1.00
18690;DHT22;9782;52.930;15.562;2022-11-20T09:33:31;4.00;1.00
18690;DHT22;9782;52.930;15.562;2022-11-20T09:35:59;4.00;1.00
18690;DHT22;9782;52.930;15.562;2022-11-20T09:38:26;4.00;1.00
18690;DHT22;9782;52.930;15.562;2022-11-20T09:40:57;4.10;1.00
18690;DHT22;9782;52.930;15.562;2022-11-20T09:43:32;4.20;1.00
18690;DHT22;9782;52.930;15.562;2022-11-20T09:46:11;4.50;1.00
18690;DHT22;9782;52.930;15.562;2022-11-20T09:49:09;4.60;1.00
18690;DHT22;9782;52.930;15.562;2022-11-20T09:51:49;4.80;1.00
18690;DHT22;9782;52.930;15.562;2022-11-20T09:54:22;5.00;99.90
18690;DHT22;9782;52.930;15.562;2022-11-20T09:56:56;5.10;99.90
18690;DHT22;9782;52.930;15.562;2022-11-20T09:59:34;5.10;99.90
18690;DHT22;9782;52.930;15.562;2022-11-20T10:02:15;5.20;99.90
18690;DHT22;9782;52.930;15.562;2022-11-20T10:04:46;5.40;99.90
18690;DHT22;9782;52.930;15.562;2022-11-20T10:07:21;5.60;99.90
18690;DHT22;9782;52.930;15.562;2022-11-20T10:09:52;5.70;99.90
18690;DHT22;9782;52.930;15.562;2022-11-20T10:12:25;5.90;23.40
18690;DHT22;9782;52.930;15.562;2022-11-20T10:15:12;6.10;1.00
18690;DHT22;9782;52.930;15.562;2022-11-20T10:18:06;6.30;1.00
18690;DHT22;9782;52.930;15.562;2022-11-20T10:20:44;6.40;1.00
18690;DHT22;9782;52.930;15.562;2022-11-20T10:23:33;6.30;1.00
18690;DHT22;9782;52.930;15.562;2022-11-20T10:26:17;6.30;1.00
18690;DHT22;9782;52.930;15.562;2022-11-20T10:28:56;6.30;1.00
18690;DHT22;9782;52.930;15.562;2022-11-20T10:31:32;6.20;1.00
18690;DHT22;9782;52.930;15.562;2022-11-20T10:34:06;6.10;1.00
18690;DHT22;9782;52.930;15.562;2022-11-20T10:36:40;6.00;1.00
18690;DHT22;9782;52.930;15.562;2022-11-20T10:39:18;6.00;1.00
18690;DHT22;9782;52.930;15.562;2022-11-20T10:41:50;5.90;1.00
18690;DHT22;9782;52.930;15.562;2022-11-20T10:44:21;5.90;1.00
18690;DHT22;9782;52.930;15.562;2022-11-20T10:47:03;6.00;1.00
18690;DHT22;9782;52.930;15.562;2022-11-20T10:49:33;6.00;1.00
18690;DHT22;9782;52.930;15.562;2022-11-20T10:52:10;6.00;1.00
18690;DHT22;9782;52.930;15.562;2022-11-20T10:54:46;6.00;1.00
18690;DHT22;9782;52.930;15.562;2022-11-20T10:57:23;6.10;1.00
18690;DHT22;9782;52.930;15.562;2022-11-20T11:00:01;6.20;1.00
18690;DHT22;9782;52.930;15.562;2022-11-20T11:02:35;6.30;1.00
18690;DHT22;9782;52.930;15.562;2022-11-20T11:05:23;6.40;1.00
18690;DHT22;9782;52.930;15.562;2022-11-20T11:07:54;6.60;1.00
18690;DHT22;9782;52.930;15.562;2022-11-20T11:10:25;6.70;1.00
18690;DHT22;9782;52.930;15.562;2022-11-20T11:12:54;6.70;1.00
18690;DHT22;9782;52.930;15.562;2022-11-20T11:15:26;6.60;1.00
18690;DHT22;9782;52.930;15.562;2022-11-20T11:17:54;6.60;99.90
18690;DHT22;9782;52.930;15.562;2022-11-20T11:20:23;6.50;99.90
18690;DHT22;9782;52.930;15.562;2022-11-20T11:22:52;6.40;99.90
18690;DHT22;9782;52.930;15.562;2022-11-20T11:25:26;6.30;99.90
18690;DHT22;9782;52.930;15.562;2022-11-20T11:27:55;6.30;99.90
18690;DHT22;9782;52.930;15.562;2022-11-20T11:30:25;6.30;99.90
18690;DHT22;9782;52.930;15.562;2022-11-20T11:33:04;6.30;99.90
18690;DHT22;9782;52.930;15.562;2022-11-20T11:35:44;6.20;99.90
18690;DHT22;9782;52.930;15.562;2022-11-20T11:38:16;6.10;99.90
18690;DHT22;9782;52.930;15.562;2022-11-20T11:40:44;6.00;99.90
18690;DHT22;9782;52.930;15.562;2022-11-20T11:43:19;5.90;99.90
18690;DHT22;9782;52.930;15.562;2022-11-20T11:46:13;5.90;99.90
18690;DHT22;9782;52.930;15.562;2022-11-20T11:48:42;5.90;99.90
18690;DHT22;9782;52.930;15.562;2022-11-20T11:51:10;5.80;99.90
18690;DHT22;9782;52.930;15.562;2022-11-20T11:53:40;5.70;99.90
18690;DHT22;9782;52.930;15.562;2022-11-20T11:56:09;5.60;99.90
18690;DHT22;9782;52.930;15.562;2022-11-20T11:58:44;5.50;99.90
18690;DHT22;9782;52.930;15.562;2022-11-20T12:01:28;5.40;99.90
18690;DHT22;9782;52.930;15.562;2022-11-20T12:04:04;5.20;99.90
18690;DHT22;9782;52.930;15.562;2022-11-20T12:06:34;5.10;99.90
18690;DHT22;9782;52.930;15.562;2022-11-20T12:09:05;5.00;99.90
18690;DHT22;9782;52.930;15.562;2022-11-20T12:11:39;4.90;1.00
18690;DHT22;9782;52.930;15.562;2022-11-20T12:14:14;4.90;1.00
18690;DHT22;9782;52.930;15.562;2022-11-20T12:16:46;4.80;1.00
18690;DHT22;9782;52.930;15.562;2022-11-20T12:19:14;4.80;1.00
18690;DHT22;9782;52.930;15.562;2022-11-20T12:21:51;4.70;1.00
18690;DHT22;9782;52.930;15.562;2022-11-20T12:24:42;4.60;1.00
18690;DHT22;9782;52.930;15.562;2022-11-20T12:27:43;4.50;1.00
18690;DHT22;9782;52.930;15.562;2022-11-20T12:30:13;4.40;1.00
18690;DHT22;9782;52.930;15.562;2022-11-20T12:32:58;4.40;1.00
18690;DHT22;9782;52.930;15.562;2022-11-20T12:35:46;4.30;1.00
18690;DHT22;9782;52.930;15.562;2022-11-20T12:38:38;4.30;1.00
18690;DHT22;9782;52.930;15.562;2022-11-20T12:41:15;4.20;1.00
18690;DHT22;9782;52.930;15.562;2022-11-20T12:44:15;4.20;1.00
18690;DHT22;9782;52.930;15.562;2022-11-20T12:47:13;4.00;1.00
18690;DHT22;9782;52.930;15.562;2022-11-20T12:49:52;4.00;1.00
18690;DHT22;9782;52.930;15.562;2022-11-20T12:52:37;3.90;1.00
18690;DHT22;9782;52.930;15.562;2022-11-20T12:55:16;3.90;1.00
18690;DHT22;9782;52.930;15.562;2022-11-20T12:57:50;3.80;1.00
18690;DHT22;9782;52.930;15.562;2022-11-20T13:00:20;3.80;1.00
18690;DHT22;9782;52.930;15.562;2022-11-20T13:03:33;3.70;1.00
18690;DHT22;9782;52.930;15.562;2022-11-20T13:06:10;3.60;1.00
18690;DHT22;9782;52.930;15.562;2022-11-20T13:08:40;3.50;1.00
18690;DHT22;9782;52.930;15.562;2022-11-20T13:11:15;3.40;1.00
18690;DHT22;9782;52.930;15.562;2022-11-20T13:13:59;3.30;1.00
18690;DHT22;9782;52.930;15.562;2022-11-20T13:16:32;3.40;1.00
18690;DHT22;9782;52.930;15.562;2022-11-20T13:19:02;3.40;1.00
18690;DHT22;9782;52.930;15.562;2022-11-20T13:21:42;3.40;1.00
18690;DHT22;9782;52.930;15.562;2022-11-20T13:24:25;3.40;1.00
18690;DHT22;9782;52.930;15.562;2022-11-20T13:27:21;3.30;1.00
18690;DHT22;9782;52.930;15.562;2022-11-20T13:30:00;3.30;1.00
18690;DHT22;9782;52.930;15.562;2022-11-20T13:32:29;3.30;1.00
18690;DHT22;9782;52.930;15.562;2022-11-20T13:34:59;3.30;1.00
18690;DHT22;9782;52.930;15.562;2022-11-20T13:37:30;3.30;1.00
18690;DHT22;9782;52.930;15.562;2022-11-20T13:40:21;3.20;1.00
18690;DHT22;9782;52.930;15.562;2022-11-20T13:42:56;3.20;1.00
18690;DHT22;9782;52.930;15.562;2022-11-20T13:45:26;3.20;1.00
18690;DHT22;9782;52.930;15.562;2022-11-20T13:47:55;3.10;1.00
18690;DHT22;9782;52.930;15.562;2022-11-20T13:50:40;3.10;1.00
18690;DHT22;9782;52.930;15.562;2022-11-20T13:53:25;3.00;1.00
18690;DHT22;9782;52.930;15.562;2022-11-20T13:55:57;2.90;1.00
18690;DHT22;9782;52.930;15.562;2022-11-20T13:58:40;2.90;1.00
18690;DHT22;9782;52.930;15.562;2022-11-20T14:01:14;2.80;1.00
18690;DHT22;9782;52.930;15.562;2022-11-20T14:03:43;2.80;1.00
18690;DHT22;9782;52.930;15.562;2022-11-20T14:06:14;2.70;1.00
18690;DHT22;9782;52.930;15.562;2022-11-20T14:08:46;2.60;1.00
18690;DHT22;9782;52.930;15.562;2022-11-20T14:11:16;2.50;22.60
18690;DHT22;9782;52.930;15.562;2022-11-20T14:13:59;2.50;48.20
18690;DHT22;9782;52.930;15.562;2022-11-20T14:16:29;2.40;72.80
18690;DHT22;9782;52.930;15.562;2022-11-20T14:18:57;2.40;96.20
18690;DHT22;9782;52.930;15.562;2022-11-20T14:21:26;2.30;99.90
18690;DHT22;9782;52.930;15.562;2022-11-20T14:24:02;2.30;99.90
18690;DHT22;9782;52.930;15.562;2022-11-20T14:26:29;2.20;99.90
18690;DHT22;9782;52.930;15.562;2022-11-20T14:28:58;2.20;99.90
18690;DHT22;9782;52.930;15.562;2022-11-20T14:31:26;2.20;99.90
18690;DHT22;9782;52.930;15.562;2022-11-20T14:33:54;2.10;99.90
18690;DHT22;9782;52.930;15.562;2022-11-20T14:36:23;2.10;99.90
18690;DHT22;9782;52.930;15.562;2022-11-20T14:38:51;2.00;99.90
18690;DHT22;9782;52.930;15.562;2022-11-20T14:41:20;2.00;99.90
18690;DHT22;9782;52.930;15.562;2022-11-20T14:43:51;1.90;99.90
18690;DHT22;9782;52.930;15.562;2022-11-20T14:46:22;1.90;99.90
18690;DHT22;9782;52.930;15.562;2022-11-20T14:48:51;1.90;99.90
18690;DHT22;9782;52.930;15.562;2022-11-20T14:51:32;1.80;99.90
18690;DHT22;9782;52.930;15.562;2022-11-20T14:54:09;1.80;99.90
18690;DHT22;9782;52.930;15.562;2022-11-20T14:56:36;1.70;99.90
18690;DHT22;9782;52.930;15.562;2022-11-20T14:59:04;1.70;99.90
18690;DHT22;9782;52.930;15.562;2022-11-20T15:01:33;1.70;99.90
18690;DHT22;9782;52.930;15.562;2022-11-20T15:04:04;1.60;99.90
18690;DHT22;9782;52.930;15.562;2022-11-20T15:06:31;1.60;99.90
18690;DHT22;9782;52.930;15.562;2022-11-20T15:08:58;1.60;99.90
18690;DHT22;9782;52.930;15.562;2022-11-20T15:11:30;1.60;99.90
18690;DHT22;9782;52.930;15.562;2022-11-20T15:13:59;1.60;99.90
18690;DHT22;9782;52.930;15.562;2022-11-20T15:16:29;1.60;99.90
18690;DHT22;9782;52.930;15.562;2022-11-20T15:18:58;1.50;99.90
18690;DHT22;9782;52.930;15.562;2022-11-20T15:21:26;1.50;99.90
18690;DHT22;9782;52.930;15.562;2022-11-20T15:23:54;1.50;99.90
18690;DHT22;9782;52.930;15.562;2022-11-20T15:26:24;1.50;99.90
18690;DHT22;9782;52.930;15.562;2022-11-20T15:28:52;1.40;99.90
18690;DHT22;9782;52.930;15.562;2022-11-20T15:31:21;1.40;99.90
18690;DHT22;9782;52.930;15.562;2022-11-20T15:33:49;1.40;1.00
18690;DHT22;9782;52.930;15.562;2022-11-20T15:36:18;1.30;1.00
18690;DHT22;9782;52.930;15.562;2022-11-20T15:38:45;1.30;1.00
18690;DHT22;9782;52.930;15.562;2022-11-20T15:41:13;1.30;1.00
18690;DHT22;9782;52.930;15.562;2022-11-20T15:43:40;1.30;1.00
18690;DHT22;9782;52.930;15.562;2022-11-20T15:46:11;1.20;1.00
18690;DHT22;9782;52.930;15.562;2022-11-20T15:48:42;1.20;1.00
18690;DHT22;9782;52.930;15.562;2022-11-20T15:51:20;1.30;1.00
18690;DHT22;9782;52.930;15.562;2022-11-20T15:53:48;1.20;1.00
18690;DHT22;9782;52.930;15.562;2022-11-20T15:56:15;1.30;1.00
18690;DHT22;9782;52.930;15.562;2022-11-20T15:58:42;1.30;1.00
18690;DHT22;9782;52.930;15.562;2022-11-20T16:01:10;1.30;1.00
18690;DHT22;9782;52.930;15.562;2022-11-20T16:03:38;1.20;1.00
18690;DHT22;9782;52.930;15.562;2022-11-20T16:06:05;1.20;1.00
18690;DHT22;9782;52.930;15.562;2022-11-20T16:08:34;1.30;1.00
18690;DHT22;9782;52.930;15.562;2022-11-20T16:11:01;1.20;1.00
18690;DHT22;9782;52.930;15.562;2022-11-20T16:13:30;1.20;1.00
18690;DHT22;9782;52.930;15.562;2022-11-20T16:16:20;1.20;1.00